Time;durP1;ratioP1;P1;durP2;ratioP2;P2;SDS_P1;SDS_P2;PMS_P1;PMS_P2;Temp;Humidity;BMP_temperature;BMP_pressure;BME280_temperature;BME280_humidity;BME280_pressure;Samples;Min_cycle;Max_cycle;Signal;HPM_P1;HPM_P2
2022/10/11 00:04:39;;;;;;;1.52;1.13;;;;;;;9.39;81.86;101420.44;10509847;28;20059;-83
2022/10/11 00:09:41;;;;;;;2.40;1.08;;;;;;;9.53;81.21;101414.28;10485866;28;20044;-83
2022/10/11 00:14:47;;;;;;;2.67;1.20;;;;;;;9.53;80.92;101410.72;10482772;28;20041;-83
2022/10/11 00:20:02;;;;;;;2.88;1.30;;;;;;;9.50;80.91;101405.75;10546467;27;20620;-84
2022/10/11 00:25:18;;;;;;;4.15;1.50;;;;;;;9.29;80.16;101394.53;10518541;28;21409;-82
2022/10/11 00:30:32;;;;;;;4.57;1.50;;;;;;;9.26;80.87;101388.75;10604956;27;20143;-82
2022/10/11 00:35:45;;;;;;;1.27;1.10;;;;;;;9.59;81.06;101380.41;10606352;27;20559;-82
2022/10/11 00:41:00;;;;;;;1.60;1.50;;;;;;;9.68;80.08;101378.84;10544458;28;21452;-82
2022/10/11 00:46:17;;;;;;;1.73;1.20;;;;;;;9.48;79.56;101370.41;10537633;27;20621;-82
2022/10/11 00:51:46;;;;;;;2.10;1.52;;;;;;;9.45;80.57;101375.56;10522202;28;20617;-83
2022/10/11 00:57:03;;;;;;;2.20;1.33;;;;;;;9.57;80.08;101368.88;10536385;28;20640;-84
2022/10/11 01:02:18;;;;;;;1.85;1.15;;;;;;;9.55;79.72;101368.31;10522063;27;20627;-84
2022/10/11 01:07:59;;;;;;;2.13;1.55;;;;;;;9.63;78.88;101359.63;10564289;27;20180;-83
2022/10/11 01:13:17;;;;;;;1.50;1.30;;;;;;;9.52;79.35;101357.84;10521028;28;20632;-84
2022/10/11 01:18:49;;;;;;;3.85;1.35;;;;;;;9.67;78.59;101351.69;10494290;27;20642;-85
2022/10/11 01:24:12;;;;;;;1.65;1.30;;;;;;;9.42;79.33;101349.53;10563763;27;20639;-83
2022/10/11 01:29:52;;;;;;;2.33;1.40;;;;;;;9.31;79.47;101342.25;10628472;27;20136;-84
2022/10/11 01:35:22;;;;;;;2.75;1.23;;;;;;;9.49;78.96;101338.34;10515172;28;20988;-82
2022/10/11 01:40:44;;;;;;;1.25;1.15;;;;;;;9.56;78.75;101322.56;10602626;27;20178;-83
2022/10/11 01:45:59;;;;;;;1.40;1.30;;;;;;;9.70;78.28;101329.25;10600491;27;20634;-83
2022/10/11 01:51:13;;;;;;;3.05;2.40;;;;;;;9.38;78.38;101325.63;10520161;28;21256;-82
2022/10/11 01:56:38;;;;;;;2.75;1.40;;;;;;;9.13;79.22;101316.03;10606527;27;20136;-83
2022/10/11 02:02:00;;;;;;;1.85;1.42;;;;;;;9.22;79.90;101322.72;10521412;28;21223;-82
2022/10/11 02:07:22;;;;;;;1.48;1.30;;;;;;;9.16;79.41;101301.81;10562989;27;20631;-82
2022/10/11 02:13:08;;;;;;;4.05;2.05;;;;;;;8.89;79.69;101299.03;10606057;27;20139;-81
2022/10/11 02:18:24;;;;;;;2.63;1.60;;;;;;;8.81;80.55;101290.41;10579464;27;20913;-84
2022/10/11 02:23:46;;;;;;;1.90;1.63;;;;;;;9.13;80.34;101283.16;10544441;27;20642;-82
2022/10/11 02:29:04;;;;;;;4.35;1.63;;;;;;;9.25;79.26;101280.28;10563594;27;20611;-81
2022/10/11 02:34:22;;;;;;;2.40;1.50;;;;;;;9.10;79.16;101282.84;10522199;28;20617;-82
2022/10/11 02:39:43;;;;;;;4.10;1.90;;;;;;;9.05;79.68;101267.19;10563944;27;20619;-82
2022/10/11 02:45:17;;;;;;;2.33;1.60;;;;;;;9.13;79.78;101261.25;10509170;28;20719;-82
2022/10/11 02:50:31;;;;;;;3.60;1.98;;;;;;;8.84;79.87;101257.88;10521174;28;20134;-81
2022/10/11 02:55:48;;;;;;;5.20;2.03;;;;;;;8.74;80.19;101249.56;10559472;28;20615;-82
2022/10/11 03:01:06;;;;;;;3.33;1.60;;;;;;;8.75;80.72;101254.78;10581692;27;20990;-82
2022/10/11 03:06:21;;;;;;;6.32;1.80;;;;;;;8.66;80.10;101248.09;10531577;28;20623;-81
2022/10/11 03:11:36;;;;;;;3.22;1.48;;;;;;;8.44;81.50;101244.50;10521835;28;20625;-81
2022/10/11 03:22:33;;;;;;;2.50;1.65;;;;;;;8.35;81.81;101235.09;10558165;28;21225;-82
2022/10/11 03:28:12;;;;;;;1.73;1.58;;;;;;;8.39;81.94;101233.50;10509843;28;21248;-82
2022/10/11 03:33:31;;;;;;;1.65;1.40;;;;;;;8.38;81.96;101218.19;10521705;28;20617;-82
2022/10/11 03:38:44;;;;;;;2.42;1.60;;;;;;;8.57;81.01;101215.97;10656813;27;20188;-82
2022/10/11 03:44:01;;;;;;;2.40;1.50;;;;;;;8.48;80.66;101204.63;10629845;27;1249995;-82
2022/10/11 03:49:18;;;;;;;1.83;1.55;;;;;;;8.65;81.06;101204.56;10550616;28;21246;-82
2022/10/11 03:54:34;;;;;;;1.90;1.40;;;;;;;8.50;80.62;101202.47;10520762;28;20624;-82
2022/10/11 03:59:49;;;;;;;4.38;1.30;;;;;;;8.58;81.18;101191.09;10353779;28;20641;-81
2022/10/11 04:05:05;;;;;;;2.90;1.63;;;;;;;8.49;80.54;101187.13;10546441;28;20624;-82
2022/10/11 04:10:19;;;;;;;3.83;1.50;;;;;;;8.38;81.06;101185.38;10542304;28;20618;-83
2022/10/11 04:15:38;;;;;;;1.85;1.50;;;;;;;8.48;81.09;101181.91;10508060;28;20634;-84
2022/10/11 04:20:51;;;;;;;1.63;1.45;;;;;;;8.40;81.01;101166.78;10605796;27;20566;-84
2022/10/11 04:26:32;;;;;;;3.33;1.35;;;;;;;8.19;81.55;101159.38;10679338;27;20544;-83
2022/10/11 04:31:52;;;;;;;5.00;1.27;;;;;;;8.34;81.29;101156.88;10663210;27;20572;-81
2022/10/11 04:37:06;;;;;;;3.17;1.60;;;;;;;8.21;81.36;101151.75;10481140;28;21226;-81
2022/10/11 04:42:21;;;;;;;6.40;2.10;;;;;;;8.11;81.46;101145.03;10525920;27;20648;-83
2022/10/11 04:47:39;;;;;;;2.47;1.80;;;;;;;7.94;81.38;101138.78;10550482;27;20640;-82
2022/10/11 04:52:54;;;;;;;1.58;1.45;;;;;;;8.03;82.34;101139.19;10535762;27;20652;-89
2022/10/11 04:58:09;;;;;;;1.73;1.25;;;;;;;7.95;83.03;101132.25;10576780;27;20630;-94
2022/10/11 05:03:24;;;;;;;2.88;1.63;;;;;;;7.85;83.21;101126.66;10607256;27;20128;-85
2022/10/11 05:08:38;;;;;;;3.78;1.80;;;;;;;8.13;83.49;101126.47;10607411;27;20535;-86
2022/10/11 05:13:51;;;;;;;2.65;1.60;;;;;;;8.08;82.72;101118.22;10432927;28;20673;-84
2022/10/11 05:19:06;;;;;;;4.03;1.55;;;;;;;8.43;82.72;101115.13;10500920;28;20638;-85
2022/10/11 05:24:22;;;;;;;3.05;2.03;;;;;;;8.20;81.77;101106.34;10563992;27;20619;-82
2022/10/11 05:36:08;;;;;;;5.95;2.30;;;;;;;7.80;81.90;101100.06;10522912;28;21134;-83
2022/10/11 05:41:23;;;;;;;2.53;1.83;;;;;;;7.60;82.64;101088.00;10564113;28;20634;-84
2022/10/11 05:46:37;;;;;;;3.80;2.30;;;;;;;7.42;82.97;101095.38;10515575;28;21248;-83
2022/10/11 05:51:52;;;;;;;3.40;2.28;;;;;;;7.64;83.41;101091.91;10563031;28;20611;-84
2022/10/11 05:57:07;;;;;;;5.15;2.20;;;;;;;7.63;83.67;101082.03;10612344;27;20613;-85
2022/10/11 06:02:20;;;;;;;3.47;2.10;;;;;;;7.52;83.19;101078.34;10649406;27;20136;-84
2022/10/11 06:07:38;;;;;;;3.20;2.00;;;;;;;7.47;83.63;101078.28;10522692;28;20642;-84
2022/10/11 06:12:52;;;;;;;5.57;2.22;;;;;;;7.48;83.20;101069.84;10570298;27;20236;-85
2022/10/11 06:18:20;;;;;;;5.00;2.00;;;;;;;7.45;83.45;101058.56;10557966;27;24458;-82
2022/10/11 06:23:51;;;;;;;4.72;1.80;;;;;;;7.40;83.29;101062.06;10765380;27;24436;-85
2022/10/11 06:29:23;;;;;;;4.13;1.35;;;;;;;7.37;82.48;101053.53;10777996;27;24470;-83
2022/10/11 06:34:50;;;;;;;2.00;1.80;;;;;;;7.27;82.39;101048.75;10557648;27;24464;-83
2022/10/11 06:40:20;;;;;;;1.65;1.55;;;;;;;7.36;83.03;101036.34;10767106;27;24440;-84
2022/10/11 06:45:50;;;;;;;2.13;1.60;;;;;;;7.42;82.05;101037.22;10563496;27;24481;-84
2022/10/11 06:51:24;;;;;;;2.17;1.77;;;;;;;7.99;81.41;101032.28;10566663;27;20556;-84
2022/10/11 06:56:53;;;;;;;2.85;1.50;;;;;;;8.46;79.75;101021.63;10596539;27;25015;-83
2022/10/11 07:02:22;;;;;;;5.72;2.08;;;;;;;8.66;78.16;101031.13;10779136;27;24431;-84
2022/10/11 07:07:50;;;;;;;2.65;1.95;;;;;;;9.27;76.61;101024.28;10621254;27;24442;-84
2022/10/11 07:13:23;;;;;;;3.20;1.90;;;;;;;9.30;76.05;101015.53;10777130;27;25043;-83
2022/10/11 07:18:57;;;;;;;2.47;1.70;;;;;;;9.95;73.68;101014.25;10597954;27;24441;-85
2022/10/11 07:24:11;;;;;;;3.33;1.90;;;;;;;10.41;71.70;101011.69;10199119;27;15046922;-84
2022/10/11 07:29:43;;;;;;;9.90;2.30;;;;;;;11.26;68.90;101005.66;10564531;27;24516;-84
2022/10/11 07:35:15;;;;;;;3.40;1.40;;;;;;;11.54;66.94;100993.25;10614441;27;24438;-84
2022/10/11 07:40:47;;;;;;;2.88;1.33;;;;;;;11.98;65.24;100974.19;10778385;27;24427;-84
2022/10/11 07:46:17;;;;;;;2.05;1.50;;;;;;;12.13;64.25;100976.81;10564312;27;24438;-83
2022/10/11 07:51:49;;;;;;;3.45;1.77;;;;;;;12.35;63.00;100969.00;10597044;27;24511;-84
2022/10/11 07:57:20;;;;;;;2.42;1.80;;;;;;;13.14;61.34;100957.91;10778341;27;24920;-84
2022/10/11 08:03:05;;;;;;;1.55;1.13;;;;;;;13.61;59.06;100942.56;10654318;27;24434;-84
2022/10/11 08:08:39;;;;;;;2.58;1.60;;;;;;;13.77;58.63;100944.00;10569186;27;24454;-84
2022/10/11 08:14:10;;;;;;;4.03;1.45;;;;;;;13.56;58.71;100933.25;10551526;27;24443;-83
2022/10/11 08:19:41;;;;;;;2.03;1.70;;;;;;;13.60;57.84;100910.59;10564848;27;24427;-84
2022/10/11 08:25:13;;;;;;;2.97;1.40;;;;;;;13.48;58.09;100914.56;10778577;27;24850;-83
2022/10/11 08:31:00;;;;;;;3.53;1.48;;;;;;;13.78;57.81;100891.31;10671769;27;24896;-83
2022/10/11 08:36:33;;;;;;;4.00;1.48;;;;;;;13.07;58.06;100894.88;10744144;27;24475;-83
2022/10/11 08:42:33;;;;;;;2.00;1.17;;;;;;;11.94;61.00;100879.56;10771764;27;24451;-84
2022/10/11 08:48:48;;;;;;;2.75;1.50;;;;;;;11.06;62.55;100869.22;10648331;27;20614;-84
2022/10/11 08:54:38;;;;;;;3.13;1.40;;;;;;;10.61;63.94;100859.97;10520807;28;24439;-84
2022/10/11 09:00:34;;;;;;;2.47;1.77;;;;;;;10.60;65.19;100833.63;10564251;27;24798;-83
2022/10/11 09:06:09;;;;;;;1.30;1.20;;;;;;;10.51;64.93;100836.09;10569023;27;21204;-82
2022/10/11 09:11:32;;;;;;;2.92;1.60;;;;;;;10.56;64.93;100827.84;10640273;27;20632;-82
2022/10/11 09:17:09;;;;;;;1.92;1.02;;;;;;;10.34;65.13;100824.59;10506636;28;21231;-81
2022/10/11 09:22:44;;;;;;;2.13;1.20;;;;;;;10.26;64.76;100805.94;10479432;28;20399;-82
2022/10/11 09:28:01;;;;;;;1.90;1.40;;;;;;;10.40;64.93;100815.25;10480231;28;20053;-80
2022/10/11 09:33:06;;;;;;;2.78;0.90;;;;;;;10.49;64.41;100808.13;10476792;28;20415;-80
2022/10/11 09:38:33;;;;;;;2.65;1.27;;;;;;;10.41;65.28;100796.88;10477040;28;20047;-81
2022/10/11 09:43:35;;;;;;;4.75;1.20;;;;;;;10.64;64.19;100779.84;10479311;28;20045;-81
2022/10/11 09:54:41;;;;;;;1.93;1.07;;;;;;;10.31;63.29;100781.25;10478543;28;19928;-83
2022/10/11 10:00:12;;;;;;;1.80;1.23;;;;;;;10.13;63.73;100759.84;10477438;28;20040;-82
2022/10/11 10:05:17;;;;;;;1.52;1.08;;;;;;;10.02;63.74;100756.28;10477697;28;20055;-82
2022/10/11 10:10:33;;;;;;;2.22;1.30;;;;;;;10.02;63.59;100750.78;10477499;28;20052;-81
2022/10/11 10:15:36;;;;;;;1.58;1.20;;;;;;;10.03;64.14;100737.91;10476797;28;20094;-82
2022/10/11 10:20:38;;;;;;;0.68;0.68;;;;;;;9.91;62.97;100736.28;10460095;28;20044;-82
2022/10/11 10:25:40;;;;;;;2.78;1.20;;;;;;;9.89;63.80;100733.00;10462637;28;20053;-82
2022/10/11 10:31:19;;;;;;;3.65;1.50;;;;;;;9.87;63.18;100726.94;10448901;28;20046;-82
2022/10/11 10:36:26;;;;;;;2.42;1.25;;;;;;;9.94;63.19;100719.28;10448684;28;20045;-82
2022/10/11 10:41:29;;;;;;;2.75;1.42;;;;;;;10.05;63.22;100722.81;10449605;28;20048;-82
2022/10/11 10:47:01;;;;;;;5.63;1.08;;;;;;;10.09;62.13;100717.63;10449420;28;20064;-82
2022/10/11 10:52:33;;;;;;;3.30;1.10;;;;;;;10.13;62.26;100715.97;10448205;28;20046;-82
2022/10/11 10:58:19;;;;;;;1.10;1.00;;;;;;;10.18;61.78;100694.84;10447751;28;20051;-81
2022/10/11 11:03:43;;;;;;;1.67;1.00;;;;;;;10.28;61.17;100685.81;10427309;28;20037;-83
2022/10/11 11:09:01;;;;;;;2.22;1.00;;;;;;;10.36;60.74;100663.28;10441470;28;20258;-83
2022/10/11 11:14:08;;;;;;;3.92;1.10;;;;;;;10.42;61.25;100667.69;10447062;28;20050;-82
2022/10/11 11:19:16;;;;;;;2.50;1.33;;;;;;;10.53;60.15;100644.56;10428254;28;20038;-82
2022/10/11 11:24:33;;;;;;;4.90;1.30;;;;;;;10.57;60.16;100625.63;10447293;28;20041;-83
2022/10/11 11:29:53;;;;;;;3.95;1.15;;;;;;;10.62;59.65;100639.34;10446126;28;20072;-83
2022/10/11 11:35:00;;;;;;;2.22;1.00;;;;;;;10.65;59.60;100632.47;10447670;28;20041;-83
2022/10/11 11:40:11;;;;;;;2.20;1.40;;;;;;;10.68;58.67;100638.19;10445648;28;20527;-83
2022/10/11 11:45:50;;;;;;;2.67;1.27;;;;;;;10.75;58.74;100637.88;10447856;28;20057;-84
2022/10/11 11:51:06;;;;;;;1.42;1.10;;;;;;;10.83;58.68;100629.88;10429671;28;20381;-83
2022/10/11 11:56:32;;;;;;;3.28;1.20;;;;;;;10.92;58.43;100627.34;10445718;28;20381;-83
2022/10/11 12:01:46;;;;;;;1.67;1.33;;;;;;;11.02;57.63;100621.00;10429088;28;20068;-83
2022/10/11 12:07:02;;;;;;;2.78;0.80;;;;;;;11.11;56.72;100617.38;10445900;28;20404;-83
2022/10/11 12:12:07;;;;;;;1.70;1.20;;;;;;;11.20;56.58;100609.34;10445976;28;20420;-83
2022/10/11 12:17:35;;;;;;;1.13;1.00;;;;;;;11.27;55.08;100607.06;10445499;28;20048;-83
2022/10/11 12:23:02;;;;;;;3.10;0.82;;;;;;;11.33;54.68;100605.13;10452883;28;20057;-83
2022/10/11 12:28:40;;;;;;;0.80;0.50;;;;;;;11.36;54.06;100588.88;10443873;28;20054;-83
2022/10/11 12:33:45;;;;;;;1.85;0.65;;;;;;;11.38;54.47;100597.66;10437234;28;20037;-80
2022/10/11 12:39:19;;;;;;;4.97;1.10;;;;;;;11.43;54.13;100596.78;10448044;28;20041;-86
2022/10/11 12:44:27;;;;;;;0.85;0.70;;;;;;;11.43;53.88;100599.53;10442132;28;20522;-80
2022/10/11 12:49:30;;;;;;;1.05;0.95;;;;;;;11.44;54.20;100595.66;10433083;28;20041;-85
2022/10/11 12:54:47;;;;;;;1.23;0.93;;;;;;;11.44;54.00;100581.94;10434895;28;20033;-83
2022/10/11 13:00:19;;;;;;;1.88;0.90;;;;;;;11.46;54.36;100572.31;10436533;28;20048;-84
2022/10/11 13:05:22;;;;;;;1.30;0.80;;;;;;;11.48;53.80;100572.84;10425400;28;20517;-84
2022/10/11 13:10:45;;;;;;;1.83;1.05;;;;;;;11.48;54.10;100572.03;10444388;28;20053;-84
2022/10/11 13:15:48;;;;;;;1.83;0.98;;;;;;;11.46;54.83;100569.56;10411427;28;20408;-87
2022/10/11 13:20:50;;;;;;;1.48;0.80;;;;;;;11.48;54.56;100574.78;10417202;28;20518;-84
2022/10/11 13:25:53;;;;;;;1.23;1.02;;;;;;;11.47;55.83;100568.47;10452674;28;20041;-84
2022/10/11 13:30:57;;;;;;;3.10;1.27;;;;;;;11.46;56.71;100583.31;10439956;28;20029;-83
2022/10/11 13:36:01;;;;;;;3.08;1.10;;;;;;;11.42;57.91;100587.72;10440742;28;20072;-82
2022/10/11 13:41:06;;;;;;;1.23;1.00;;;;;;;11.33;60.03;100585.91;10437002;28;20444;-81
2022/10/11 13:46:23;;;;;;;5.53;1.58;;;;;;;11.09;61.56;100602.25;10436414;28;20046;-80
2022/10/11 13:51:32;;;;;;;1.07;0.80;;;;;;;10.88;63.97;100598.84;10442057;28;20057;-78
2022/10/11 13:56:48;;;;;;;2.17;1.10;;;;;;;10.64;64.56;100615.19;10440516;28;20564;-86
2022/10/11 14:01:58;;;;;;;1.73;1.10;;;;;;;10.49;66.72;100610.56;10446928;28;20508;-79
2022/10/11 14:07:01;;;;;;;1.20;0.80;;;;;;;10.35;67.54;100609.53;10450189;28;20071;-81
2022/10/11 14:12:34;;;;;;;4.10;1.20;;;;;;;10.30;66.61;100608.75;10432748;28;20060;-81
2022/10/11 14:17:41;;;;;;;0.82;0.82;;;;;;;10.34;66.61;100602.41;10451014;28;20040;-80
2022/10/11 14:22:44;;;;;;;1.70;1.10;;;;;;;10.36;67.02;100624.06;10432679;28;20072;-81
2022/10/11 14:27:47;;;;;;;4.28;1.00;;;;;;;10.38;67.06;100624.59;10446697;28;20034;-81
2022/10/11 14:32:50;;;;;;;5.00;1.20;;;;;;;10.34;67.78;100621.59;10445793;28;20089;-80
2022/10/11 14:37:53;;;;;;;2.25;1.00;;;;;;;10.31;69.55;100630.41;10448337;28;20388;-81
2022/10/11 14:42:55;;;;;;;4.47;1.30;;;;;;;10.20;70.84;100628.75;10424247;28;20064;-81
2022/10/11 14:47:58;;;;;;;0.82;0.63;;;;;;;10.07;72.42;100621.13;10432318;28;20120;-81
2022/10/11 14:53:00;;;;;;;2.60;1.40;;;;;;;9.94;73.31;100626.09;10448890;28;20056;-81
2022/10/11 14:58:03;;;;;;;1.80;1.30;;;;;;;9.84;75.03;100620.59;10449142;28;20045;-81
2022/10/11 15:03:08;;;;;;;3.63;1.30;;;;;;;9.89;76.09;100630.72;10447651;28;20530;-80
2022/10/11 15:08:10;;;;;;;6.18;1.60;;;;;;;10.13;76.38;100620.81;10448035;28;20048;-81
2022/10/11 15:13:12;;;;;;;5.32;1.70;;;;;;;10.14;76.01;100627.13;10446970;28;20542;-80
2022/10/11 15:18:20;;;;;;;4.28;2.00;;;;;;;10.32;77.51;100626.56;10446911;28;20058;-80
2022/10/11 15:23:22;;;;;;;5.70;1.80;;;;;;;10.33;76.95;100630.13;10441155;28;20045;-81
2022/10/11 15:28:26;;;;;;;4.13;2.38;;;;;;;10.34;77.49;100631.75;10447461;28;20472;-81
2022/10/11 15:33:28;;;;;;;2.08;1.63;;;;;;;10.34;77.68;100645.47;10421954;28;20064;-80
2022/10/11 15:38:31;;;;;;;3.70;2.20;;;;;;;10.24;77.46;100643.59;10407069;28;20050;-81
2022/10/11 15:43:33;;;;;;;2.75;1.60;;;;;;;10.10;78.25;100643.31;10443595;28;20057;-81
2022/10/11 15:48:36;;;;;;;3.03;1.90;;;;;;;10.01;79.81;100642.22;10447297;28;20447;-81
2022/10/11 15:53:39;;;;;;;3.45;2.00;;;;;;;10.05;80.01;100642.50;10448626;28;20450;-82
2022/10/11 15:58:41;;;;;;;2.65;2.00;;;;;;;10.18;81.03;100644.66;10441860;28;20041;-81
2022/10/11 16:03:45;;;;;;;9.30;2.40;;;;;;;10.17;80.08;100646.59;10446972;28;20480;-82
2022/10/11 16:08:47;;;;;;;3.90;1.90;;;;;;;10.13;80.68;100650.16;10445677;28;20037;-81
2022/10/11 16:19:17;;;;;;;2.92;1.77;;;;;;;9.76;81.45;100651.31;10446936;28;20045;-82
2022/10/11 16:24:20;;;;;;;3.40;2.15;;;;;;;9.80;81.82;100651.59;10446104;28;20060;-81
2022/10/11 16:29:23;;;;;;;4.40;2.00;;;;;;;9.65;82.71;100644.19;10438747;28;20038;-82
2022/10/11 16:34:31;;;;;;;5.73;2.10;;;;;;;9.70;83.34;100646.09;10445907;28;20042;-82
2022/10/11 16:39:34;;;;;;;3.92;1.92;;;;;;;9.75;83.63;100649.69;10446736;28;20045;-82
2022/10/11 16:44:38;;;;;;;3.17;1.95;;;;;;;9.73;83.74;100654.63;10442349;28;20037;-85
2022/10/11 16:49:41;;;;;;;5.13;2.05;;;;;;;9.62;84.21;100658.47;10435795;28;20053;-79
2022/10/11 16:54:45;;;;;;;2.05;1.77;;;;;;;9.50;84.04;100658.72;10441882;28;20045;-73
2022/10/11 16:59:47;;;;;;;5.47;1.80;;;;;;;9.43;84.47;100660.91;10420158;28;20038;-74
2022/10/11 17:04:53;;;;;;;2.97;1.80;;;;;;;9.36;85.17;100665.81;10441962;28;20538;-73
2022/10/11 17:09:57;;;;;;;4.90;1.70;;;;;;;9.50;85.02;100649.69;10463579;28;20707;-75
2022/10/11 17:14:59;;;;;;;3.65;1.95;;;;;;;9.45;85.35;100663.38;10420175;28;20053;-86
2022/10/11 17:20:02;;;;;;;3.72;2.20;;;;;;;9.63;84.94;100665.56;10430749;28;20057;-76
2022/10/11 17:25:05;;;;;;;3.00;2.05;;;;;;;9.64;84.41;100667.22;10440285;28;20058;-76
2022/10/11 17:30:09;;;;;;;3.30;2.00;;;;;;;9.67;84.84;100666.66;10434939;28;20060;-83
2022/10/11 17:35:15;;;;;;;2.15;1.92;;;;;;;9.73;84.02;100671.06;10430766;28;20045;-75
2022/10/11 17:40:17;;;;;;;3.45;2.33;;;;;;;9.73;84.08;100676.53;10461611;28;20045;-77
2022/10/11 17:45:20;;;;;;;3.80;2.40;;;;;;;9.79;84.08;100666.41;10447554;28;20050;-78
2022/10/11 17:50:23;;;;;;;6.15;2.13;;;;;;;9.89;84.40;100669.97;10457622;28;20455;-78
2022/10/11 17:55:25;;;;;;;3.22;2.17;;;;;;;9.88;83.73;100670.22;10455697;28;20153;-83
2022/10/11 18:00:28;;;;;;;4.38;2.45;;;;;;;9.95;82.74;100660.63;10482210;28;20463;-92
2022/10/11 18:05:43;;;;;;;4.53;2.53;;;;;;;10.10;83.00;100661.69;10457942;28;20041;-84
2022/10/11 18:10:47;;;;;;;5.93;2.70;;;;;;;10.54;82.23;100662.69;10452373;28;20045;-86
2022/10/11 18:15:54;;;;;;;4.25;2.38;;;;;;;10.68;81.51;100656.59;10433448;28;20060;-85
2022/10/11 18:20:56;;;;;;;4.15;2.42;;;;;;;11.05;79.75;100662.44;10451597;28;20034;-85
2022/10/11 18:25:58;;;;;;;3.08;2.15;;;;;;;11.00;79.04;100667.16;10433109;28;20052;-88
2022/10/11 18:31:05;;;;;;;4.00;2.28;;;;;;;10.92;78.98;100654.81;10447968;28;20061;-88
2022/10/11 18:36:09;;;;;;;2.97;2.17;;;;;;;11.07;78.29;100662.97;10449560;28;20443;-92
2022/10/11 18:41:14;;;;;;;7.53;2.40;;;;;;;10.89;78.98;100671.84;10449292;28;20056;-90
2022/10/11 18:46:17;;;;;;;4.20;2.88;;;;;;;11.17;78.36;100673.91;10447246;28;20045;-89
2022/10/11 18:51:20;;;;;;;4.72;2.28;;;;;;;11.07;77.53;100679.44;10451513;28;20048;-90
2022/10/11 18:56:26;;;;;;;4.55;2.60;;;;;;;11.00;78.41;100678.94;10457376;28;20037;-90
2022/10/11 19:01:33;;;;;;;4.15;2.10;;;;;;;11.20;77.52;100675.25;10452085;28;20052;-87
2022/10/11 19:06:39;;;;;;;5.47;2.95;;;;;;;11.19;77.31;100665.38;10446521;28;20042;-89
2022/10/11 19:11:41;;;;;;;4.32;2.60;;;;;;;11.34;76.94;100667.19;10468969;28;20045;-91
2022/10/11 19:16:48;;;;;;;5.80;3.03;;;;;;;11.24;77.24;100662.59;10458447;28;20551;-86
2022/10/11 19:21:51;;;;;;;5.28;2.60;;;;;;;11.14;76.80;100663.50;10438000;28;20029;-90
2022/10/11 19:26:53;;;;;;;3.08;2.05;;;;;;;11.25;77.46;100660.66;10450244;28;20054;-92
2022/10/11 19:31:57;;;;;;;3.70;2.30;;;;;;;11.32;76.95;100667.50;10449209;28;20052;-89
2022/10/11 19:37:00;;;;;;;3.58;2.33;;;;;;;11.38;77.34;100662.78;10447786;28;20054;-89
2022/10/11 19:42:03;;;;;;;7.07;3.35;;;;;;;11.59;75.67;100666.19;10421872;28;20207;-90
2022/10/11 19:47:05;;;;;;;5.43;3.10;;;;;;;11.62;75.44;100663.66;10446023;28;20053;-90
2022/10/11 19:52:08;;;;;;;6.60;2.47;;;;;;;11.38;75.33;100679.25;10447776;28;20084;-92
2022/10/11 19:57:15;;;;;;;3.60;2.10;;;;;;;11.41;76.25;100670.44;10453332;28;20048;-84
2022/10/11 20:02:17;;;;;;;3.37;2.23;;;;;;;11.37;76.06;100667.44;10440120;28;20052;-76
2022/10/11 20:07:19;;;;;;;5.90;2.47;;;;;;;11.46;75.72;100667.66;10454753;28;20488;-82
2022/10/11 20:12:22;;;;;;;6.95;2.42;;;;;;;11.44;75.95;100661.63;10459857;28;20049;-79
2022/10/11 20:17:46;;;;;;;4.32;2.50;;;;;;;11.18;76.32;100669.22;10440875;28;20412;-76
2022/10/11 20:22:46;;;;;;;5.25;2.45;;;;;;;11.27;76.76;100667.50;10457771;28;20053;-82
2022/10/11 20:27:48;;;;;;;4.28;1.85;;;;;;;11.50;75.83;100663.25;10444828;28;20061;-74
2022/10/11 20:32:50;;;;;;;4.25;2.38;;;;;;;11.41;75.10;100665.75;10454422;28;20057;-73
2022/10/11 20:37:53;;;;;;;3.08;2.50;;;;;;;11.45;75.89;100661.34;10451690;28;20045;-73
2022/10/11 20:42:55;;;;;;;3.15;2.25;;;;;;;11.54;74.90;100672.53;10463216;28;20128;-73
2022/10/11 20:47:57;;;;;;;4.32;2.20;;;;;;;11.51;75.05;100656.63;10428422;28;20049;-73
2022/10/11 20:52:59;;;;;;;5.78;2.20;;;;;;;11.30;74.95;100668.88;10438528;28;20046;-76
2022/10/11 20:58:01;;;;;;;2.72;1.92;;;;;;;11.45;74.87;100668.75;10445093;28;20527;-73
2022/10/11 21:03:04;;;;;;;3.03;1.83;;;;;;;11.14;74.38;100658.00;10442402;28;20045;-77
2022/10/11 21:08:06;;;;;;;4.72;2.22;;;;;;;11.03;74.92;100666.56;10442831;28;20060;-74
2022/10/11 21:13:08;;;;;;;4.85;2.25;;;;;;;10.87;75.57;100660.34;10425895;28;20060;-74
2022/10/11 21:18:11;;;;;;;5.20;2.03;;;;;;;11.03;74.53;100661.91;10453570;28;20044;-75
2022/10/11 21:23:13;;;;;;;3.63;1.80;;;;;;;10.88;75.49;100665.53;10427804;28;20500;-75
2022/10/11 21:28:15;;;;;;;4.63;2.00;;;;;;;10.97;75.45;100674.03;10447607;28;20044;-73
2022/10/11 21:33:17;;;;;;;4.05;1.77;;;;;;;10.93;75.15;100666.63;10446748;28;20082;-73
2022/10/11 21:38:19;;;;;;;5.57;2.33;;;;;;;11.00;75.53;100662.47;10441094;28;20041;-77
2022/10/11 21:43:22;;;;;;;4.28;2.28;;;;;;;10.78;75.39;100660.13;10441858;28;20053;-77
2022/10/11 21:48:24;;;;;;;4.68;2.33;;;;;;;10.74;75.57;100663.69;10442336;28;20042;-77
2022/10/11 21:53:26;;;;;;;3.05;1.83;;;;;;;10.67;76.24;100669.50;10442444;28;20081;-73
2022/10/11 21:58:29;;;;;;;3.35;1.73;;;;;;;10.74;75.12;100677.41;10444296;28;20037;-77
2022/10/11 22:03:31;;;;;;;4.60;1.88;;;;;;;10.94;75.51;100671.84;10441009;28;22203;-74
2022/10/11 22:08:33;;;;;;;1.88;1.48;;;;;;;10.87;74.29;100680.38;10450236;28;20041;-74
2022/10/11 22:13:35;;;;;;;3.55;1.92;;;;;;;10.58;74.82;100679.41;10442760;28;20056;-73
2022/10/11 22:18:38;;;;;;;4.07;1.67;;;;;;;10.56;75.52;100690.66;10443148;28;20041;-71
2022/10/11 22:23:42;;;;;;;3.13;1.90;;;;;;;10.69;75.83;100691.16;10450271;28;20041;-74
2022/10/11 22:28:47;;;;;;;2.60;1.60;;;;;;;10.52;75.95;100700.56;10422079;28;20392;-72
2022/10/11 22:33:57;;;;;;;2.55;1.55;;;;;;;10.65;75.34;100692.84;10448370;28;20037;-74
2022/10/11 22:38:59;;;;;;;5.38;1.58;;;;;;;10.33;76.63;100685.78;10463118;28;20041;-74
2022/10/11 22:44:01;;;;;;;6.20;1.80;;;;;;;10.01;77.15;100688.03;10481133;28;20057;-73
2022/10/11 22:49:04;;;;;;;4.20;1.70;;;;;;;10.11;78.01;100691.56;10448176;28;20136;-75
2022/10/11 22:54:06;;;;;;;2.70;1.42;;;;;;;10.22;78.31;100689.66;10477575;28;20064;-72
2022/10/11 22:59:08;;;;;;;3.15;1.60;;;;;;;10.38;77.46;100682.22;10489352;28;20072;-74
2022/10/11 23:04:10;;;;;;;3.53;1.70;;;;;;;10.28;77.06;100688.56;10450839;28;20045;-73
2022/10/11 23:09:12;;;;;;;3.88;1.65;;;;;;;10.38;76.83;100699.50;10448639;28;20427;-72
2022/10/11 23:14:14;;;;;;;5.28;1.85;;;;;;;10.43;76.95;100694.00;10448720;28;20054;-73
2022/10/11 23:19:17;;;;;;;2.30;1.42;;;;;;;10.21;76.18;100693.50;10448341;28;20492;-73
2022/10/11 23:24:19;;;;;;;2.38;1.70;;;;;;;10.22;77.76;100704.19;10461285;28;20060;-73
2022/10/11 23:29:21;;;;;;;4.45;1.63;;;;;;;10.57;76.51;100702.44;10445524;28;20060;-74
2022/10/11 23:34:23;;;;;;;3.85;1.75;;;;;;;10.72;75.51;100701.56;10445524;28;20404;-77
2022/10/11 23:39:26;;;;;;;4.90;1.70;;;;;;;10.70;75.96;100707.34;10444164;28;20041;-78
2022/10/11 23:44:28;;;;;;;3.83;1.58;;;;;;;10.52;75.82;100705.22;10447977;28;20056;-81
2022/10/11 23:49:30;;;;;;;4.63;1.70;;;;;;;10.22;76.26;100706.94;10445267;28;20025;-81
2022/10/11 23:54:32;;;;;;;3.20;1.77;;;;;;;10.27;76.88;100717.09;10444402;28;20052;-81
2022/10/11 23:59:34;;;;;;;5.10;1.40;;;;;;;10.29;77.01;100714.88;10445453;28;20497;-82
